sensor_id;sensor_type;location;lat;lon;timestamp;P1;durP1;ratioP1;P2;durP2;ratioP2
17943;SDS011;9097;47.028;15.444;2023-09-19T00:00:03;6.18;;;2.58;;
17943;SDS011;9097;47.028;15.444;2023-09-19T00:03:06;3.60;;;2.38;;
17943;SDS011;9097;47.028;15.444;2023-09-19T00:06:09;3.28;;;2.75;;
17943;SDS011;9097;47.028;15.444;2023-09-19T00:09:13;3.63;;;2.20;;
17943;SDS011;9097;47.028;15.444;2023-09-19T00:12:17;1.90;;;1.67;;
17943;SDS011;9097;47.028;15.444;2023-09-19T00:15:20;3.17;;;2.00;;
17943;SDS011;9097;47.028;15.444;2023-09-19T00:18:22;3.47;;;1.85;;
17943;SDS011;9097;47.028;15.444;2023-09-19T00:21:28;3.47;;;2.17;;
17943;SDS011;9097;47.028;15.444;2023-09-19T00:24:33;3.63;;;2.38;;
17943;SDS011;9097;47.028;15.444;2023-09-19T00:27:37;5.85;;;2.53;;
17943;SDS011;9097;47.028;15.444;2023-09-19T00:30:42;4.63;;;1.83;;
17943;SDS011;9097;47.028;15.444;2023-09-19T00:33:45;5.40;;;3.35;;
17943;SDS011;9097;47.028;15.444;2023-09-19T00:36:50;4.07;;;2.15;;
17943;SDS011;9097;47.028;15.444;2023-09-19T00:39:55;2.28;;;1.77;;
17943;SDS011;9097;47.028;15.444;2023-09-19T00:42:59;2.35;;;1.55;;
17943;SDS011;9097;47.028;15.444;2023-09-19T00:46:01;2.40;;;1.73;;
17943;SDS011;9097;47.028;15.444;2023-09-19T00:49:07;2.20;;;1.50;;
17943;SDS011;9097;47.028;15.444;2023-09-19T00:52:10;4.13;;;1.58;;
17943;SDS011;9097;47.028;15.444;2023-09-19T00:55:13;2.08;;;1.15;;
17943;SDS011;9097;47.028;15.444;2023-09-19T00:58:21;1.70;;;1.30;;
17943;SDS011;9097;47.028;15.444;2023-09-19T01:01:24;2.10;;;1.08;;
17943;SDS011;9097;47.028;15.444;2023-09-19T01:04:27;2.20;;;1.52;;
17943;SDS011;9097;47.028;15.444;2023-09-19T01:07:30;2.00;;;1.30;;
17943;SDS011;9097;47.028;15.444;2023-09-19T01:10:34;2.08;;;1.20;;
17943;SDS011;9097;47.028;15.444;2023-09-19T01:13:43;1.30;;;1.10;;
17943;SDS011;9097;47.028;15.444;2023-09-19T01:16:50;1.48;;;1.10;;
17943;SDS011;9097;47.028;15.444;2023-09-19T01:20:15;1.23;;;0.88;;
17943;SDS011;9097;47.028;15.444;2023-09-19T01:23:20;0.93;;;0.80;;
17943;SDS011;9097;47.028;15.444;2023-09-19T01:26:29;1.27;;;0.68;;
17943;SDS011;9097;47.028;15.444;2023-09-19T01:29:37;2.38;;;1.20;;
17943;SDS011;9097;47.028;15.444;2023-09-19T01:32:42;1.88;;;0.85;;
17943;SDS011;9097;47.028;15.444;2023-09-19T01:35:46;1.50;;;1.25;;
17943;SDS011;9097;47.028;15.444;2023-09-19T01:38:49;1.30;;;0.98;;
17943;SDS011;9097;47.028;15.444;2023-09-19T01:41:54;1.45;;;0.70;;
17943;SDS011;9097;47.028;15.444;2023-09-19T01:45:03;2.35;;;1.10;;
17943;SDS011;9097;47.028;15.444;2023-09-19T01:48:13;2.58;;;1.70;;
17943;SDS011;9097;47.028;15.444;2023-09-19T01:51:20;1.75;;;1.17;;
17943;SDS011;9097;47.028;15.444;2023-09-19T01:54:26;1.38;;;1.08;;
17943;SDS011;9097;47.028;15.444;2023-09-19T01:57:29;1.50;;;0.90;;
17943;SDS011;9097;47.028;15.444;2023-09-19T02:00:32;1.05;;;0.82;;
17943;SDS011;9097;47.028;15.444;2023-09-19T02:03:38;3.10;;;1.02;;
17943;SDS011;9097;47.028;15.444;2023-09-19T02:06:41;0.77;;;0.63;;
17943;SDS011;9097;47.028;15.444;2023-09-19T02:09:47;0.90;;;0.90;;
17943;SDS011;9097;47.028;15.444;2023-09-19T02:12:50;2.83;;;0.93;;
17943;SDS011;9097;47.028;15.444;2023-09-19T02:15:53;2.85;;;1.35;;
17943;SDS011;9097;47.028;15.444;2023-09-19T02:18:57;1.75;;;1.27;;
17943;SDS011;9097;47.028;15.444;2023-09-19T02:22:05;1.98;;;1.30;;
17943;SDS011;9097;47.028;15.444;2023-09-19T02:25:10;4.43;;;1.33;;
17943;SDS011;9097;47.028;15.444;2023-09-19T02:28:14;1.38;;;0.90;;
17943;SDS011;9097;47.028;15.444;2023-09-19T02:31:16;1.20;;;0.98;;
17943;SDS011;9097;47.028;15.444;2023-09-19T02:34:20;1.35;;;1.25;;
17943;SDS011;9097;47.028;15.444;2023-09-19T02:37:24;1.45;;;1.30;;
17943;SDS011;9097;47.028;15.444;2023-09-19T02:40:26;1.60;;;0.88;;
17943;SDS011;9097;47.028;15.444;2023-09-19T02:43:29;1.42;;;1.00;;
17943;SDS011;9097;47.028;15.444;2023-09-19T02:46:32;3.22;;;1.67;;
17943;SDS011;9097;47.028;15.444;2023-09-19T02:49:37;1.98;;;0.75;;
17943;SDS011;9097;47.028;15.444;2023-09-19T02:52:41;1.48;;;1.00;;
17943;SDS011;9097;47.028;15.444;2023-09-19T02:55:44;2.50;;;1.15;;
17943;SDS011;9097;47.028;15.444;2023-09-19T02:58:48;1.42;;;1.08;;
17943;SDS011;9097;47.028;15.444;2023-09-19T03:01:51;0.82;;;0.80;;
17943;SDS011;9097;47.028;15.444;2023-09-19T03:04:56;2.25;;;1.45;;
17943;SDS011;9097;47.028;15.444;2023-09-19T03:08:00;1.88;;;1.00;;
17943;SDS011;9097;47.028;15.444;2023-09-19T03:11:04;1.42;;;0.90;;
17943;SDS011;9097;47.028;15.444;2023-09-19T03:14:08;1.33;;;1.08;;
17943;SDS011;9097;47.028;15.444;2023-09-19T03:17:13;1.75;;;1.33;;
17943;SDS011;9097;47.028;15.444;2023-09-19T03:20:17;1.20;;;0.80;;
17943;SDS011;9097;47.028;15.444;2023-09-19T03:23:21;1.83;;;0.90;;
17943;SDS011;9097;47.028;15.444;2023-09-19T03:26:24;1.80;;;0.77;;
17943;SDS011;9097;47.028;15.444;2023-09-19T03:29:26;1.33;;;0.90;;
17943;SDS011;9097;47.028;15.444;2023-09-19T03:32:29;0.65;;;0.63;;
17943;SDS011;9097;47.028;15.444;2023-09-19T03:35:34;1.88;;;0.70;;
17943;SDS011;9097;47.028;15.444;2023-09-19T03:38:37;1.90;;;0.93;;
17943;SDS011;9097;47.028;15.444;2023-09-19T03:41:39;1.40;;;0.73;;
17943;SDS011;9097;47.028;15.444;2023-09-19T03:44:42;1.30;;;0.52;;
17943;SDS011;9097;47.028;15.444;2023-09-19T03:47:44;1.02;;;0.65;;
17943;SDS011;9097;47.028;15.444;2023-09-19T03:50:49;1.42;;;1.10;;
17943;SDS011;9097;47.028;15.444;2023-09-19T03:53:52;0.55;;;0.43;;
17943;SDS011;9097;47.028;15.444;2023-09-19T03:56:55;0.35;;;0.35;;
17943;SDS011;9097;47.028;15.444;2023-09-19T03:59:57;0.85;;;0.63;;
17943;SDS011;9097;47.028;15.444;2023-09-19T04:03:00;0.82;;;0.70;;
17943;SDS011;9097;47.028;15.444;2023-09-19T04:06:07;0.32;;;0.32;;
17943;SDS011;9097;47.028;15.444;2023-09-19T04:09:10;0.38;;;0.32;;
17943;SDS011;9097;47.028;15.444;2023-09-19T04:12:13;1.45;;;0.80;;
17943;SDS011;9097;47.028;15.444;2023-09-19T04:15:17;0.68;;;0.50;;
17943;SDS011;9097;47.028;15.444;2023-09-19T04:18:19;0.73;;;0.60;;
17943;SDS011;9097;47.028;15.444;2023-09-19T04:21:25;0.82;;;0.50;;
17943;SDS011;9097;47.028;15.444;2023-09-19T04:24:29;0.63;;;0.55;;
17943;SDS011;9097;47.028;15.444;2023-09-19T04:27:33;2.65;;;0.63;;
17943;SDS011;9097;47.028;15.444;2023-09-19T04:30:35;1.23;;;0.65;;
17943;SDS011;9097;47.028;15.444;2023-09-19T04:33:40;2.97;;;0.90;;
17943;SDS011;9097;47.028;15.444;2023-09-19T04:36:45;1.75;;;0.95;;
17943;SDS011;9097;47.028;15.444;2023-09-19T04:39:47;1.60;;;0.90;;
17943;SDS011;9097;47.028;15.444;2023-09-19T04:42:53;1.33;;;0.47;;
17943;SDS011;9097;47.028;15.444;2023-09-19T04:45:57;1.15;;;0.57;;
17943;SDS011;9097;47.028;15.444;2023-09-19T04:49:00;3.03;;;0.40;;
17943;SDS011;9097;47.028;15.444;2023-09-19T04:52:05;0.30;;;0.30;;
17943;SDS011;9097;47.028;15.444;2023-09-19T04:55:09;0.40;;;0.40;;
17943;SDS011;9097;47.028;15.444;2023-09-19T04:58:17;0.40;;;0.30;;
17943;SDS011;9097;47.028;15.444;2023-09-19T05:01:19;1.13;;;0.40;;
17943;SDS011;9097;47.028;15.444;2023-09-19T05:04:23;0.32;;;0.30;;
17943;SDS011;9097;47.028;15.444;2023-09-19T05:07:27;0.68;;;0.47;;
17943;SDS011;9097;47.028;15.444;2023-09-19T05:10:29;0.57;;;0.32;;
17943;SDS011;9097;47.028;15.444;2023-09-19T05:13:34;0.75;;;0.60;;
17943;SDS011;9097;47.028;15.444;2023-09-19T05:16:37;0.30;;;0.30;;
17943;SDS011;9097;47.028;15.444;2023-09-19T05:19:40;1.30;;;0.65;;
17943;SDS011;9097;47.028;15.444;2023-09-19T05:22:44;0.82;;;0.50;;
17943;SDS011;9097;47.028;15.444;2023-09-19T05:25:47;0.30;;;0.30;;
17943;SDS011;9097;47.028;15.444;2023-09-19T05:28:49;0.95;;;0.50;;
17943;SDS011;9097;47.028;15.444;2023-09-19T05:31:53;0.65;;;0.50;;
17943;SDS011;9097;47.028;15.444;2023-09-19T05:34:56;0.80;;;0.50;;
17943;SDS011;9097;47.028;15.444;2023-09-19T05:38:00;0.93;;;0.40;;
17943;SDS011;9097;47.028;15.444;2023-09-19T05:41:02;1.15;;;0.38;;
17943;SDS011;9097;47.028;15.444;2023-09-19T05:44:07;0.80;;;0.68;;
17943;SDS011;9097;47.028;15.444;2023-09-19T05:47:10;1.27;;;0.50;;
17943;SDS011;9097;47.028;15.444;2023-09-19T05:50:13;0.43;;;0.43;;
17943;SDS011;9097;47.028;15.444;2023-09-19T05:53:18;0.40;;;0.30;;
17943;SDS011;9097;47.028;15.444;2023-09-19T05:56:21;0.68;;;0.63;;
17943;SDS011;9097;47.028;15.444;2023-09-19T05:59:23;0.60;;;0.60;;
17943;SDS011;9097;47.028;15.444;2023-09-19T06:02:27;1.42;;;0.50;;
17943;SDS011;9097;47.028;15.444;2023-09-19T06:05:30;0.82;;;0.50;;
17943;SDS011;9097;47.028;15.444;2023-09-19T06:08:34;0.70;;;0.50;;
17943;SDS011;9097;47.028;15.444;2023-09-19T06:11:36;0.80;;;0.70;;
17943;SDS011;9097;47.028;15.444;2023-09-19T06:14:39;0.82;;;0.30;;
17943;SDS011;9097;47.028;15.444;2023-09-19T06:17:42;1.10;;;0.35;;
17943;SDS011;9097;47.028;15.444;2023-09-19T06:20:45;0.70;;;0.38;;
17943;SDS011;9097;47.028;15.444;2023-09-19T06:23:49;1.13;;;0.60;;
17943;SDS011;9097;47.028;15.444;2023-09-19T06:26:53;1.75;;;0.90;;
17943;SDS011;9097;47.028;15.444;2023-09-19T06:29:55;2.15;;;0.50;;
17943;SDS011;9097;47.028;15.444;2023-09-19T06:32:58;1.45;;;0.38;;
17943;SDS011;9097;47.028;15.444;2023-09-19T06:36:03;2.13;;;0.47;;
17943;SDS011;9097;47.028;15.444;2023-09-19T06:39:07;0.40;;;0.40;;
17943;SDS011;9097;47.028;15.444;2023-09-19T06:42:11;1.77;;;0.60;;
17943;SDS011;9097;47.028;15.444;2023-09-19T06:45:13;0.52;;;0.50;;
17943;SDS011;9097;47.028;15.444;2023-09-19T06:48:19;1.63;;;0.80;;
17943;SDS011;9097;47.028;15.444;2023-09-19T06:51:24;1.45;;;0.85;;
17943;SDS011;9097;47.028;15.444;2023-09-19T06:54:28;2.10;;;0.70;;
17943;SDS011;9097;47.028;15.444;2023-09-19T06:57:31;0.95;;;0.70;;
17943;SDS011;9097;47.028;15.444;2023-09-19T07:00:34;1.48;;;0.85;;
17943;SDS011;9097;47.028;15.444;2023-09-19T07:03:37;2.30;;;0.90;;
17943;SDS011;9097;47.028;15.444;2023-09-19T07:06:40;0.70;;;0.47;;
17943;SDS011;9097;47.028;15.444;2023-09-19T07:09:44;0.90;;;0.60;;
17943;SDS011;9097;47.028;15.444;2023-09-19T07:12:53;0.57;;;0.50;;
17943;SDS011;9097;47.028;15.444;2023-09-19T07:15:55;1.60;;;0.55;;
17943;SDS011;9097;47.028;15.444;2023-09-19T07:19:00;0.80;;;0.57;;
17943;SDS011;9097;47.028;15.444;2023-09-19T07:22:03;0.70;;;0.35;;
17943;SDS011;9097;47.028;15.444;2023-09-19T07:25:09;0.85;;;0.80;;
17943;SDS011;9097;47.028;15.444;2023-09-19T07:28:14;1.27;;;0.55;;
17943;SDS011;9097;47.028;15.444;2023-09-19T07:31:17;1.40;;;0.50;;
17943;SDS011;9097;47.028;15.444;2023-09-19T07:34:19;0.57;;;0.50;;
17943;SDS011;9097;47.028;15.444;2023-09-19T07:37:23;0.50;;;0.40;;
17943;SDS011;9097;47.028;15.444;2023-09-19T07:40:28;1.25;;;1.00;;
17943;SDS011;9097;47.028;15.444;2023-09-19T07:43:31;0.40;;;0.30;;
17943;SDS011;9097;47.028;15.444;2023-09-19T07:46:34;0.80;;;0.60;;
17943;SDS011;9097;47.028;15.444;2023-09-19T07:49:37;2.22;;;0.80;;
17943;SDS011;9097;47.028;15.444;2023-09-19T07:52:39;1.55;;;0.85;;
17943;SDS011;9097;47.028;15.444;2023-09-19T07:55:43;0.75;;;0.55;;
17943;SDS011;9097;47.028;15.444;2023-09-19T07:58:48;2.22;;;0.50;;
17943;SDS011;9097;47.028;15.444;2023-09-19T08:01:52;1.83;;;0.85;;
17943;SDS011;9097;47.028;15.444;2023-09-19T08:04:54;6.22;;;1.15;;
17943;SDS011;9097;47.028;15.444;2023-09-19T08:07:57;0.82;;;0.60;;
17943;SDS011;9097;47.028;15.444;2023-09-19T08:11:02;0.93;;;0.85;;
17943;SDS011;9097;47.028;15.444;2023-09-19T08:14:11;0.82;;;0.60;;
17943;SDS011;9097;47.028;15.444;2023-09-19T08:17:15;1.23;;;0.88;;
17943;SDS011;9097;47.028;15.444;2023-09-19T08:20:17;2.28;;;1.30;;
17943;SDS011;9097;47.028;15.444;2023-09-19T08:23:20;1.00;;;0.75;;
17943;SDS011;9097;47.028;15.444;2023-09-19T08:26:24;1.38;;;1.10;;
17943;SDS011;9097;47.028;15.444;2023-09-19T08:29:28;2.22;;;1.10;;
17943;SDS011;9097;47.028;15.444;2023-09-19T08:32:30;0.60;;;0.45;;
17943;SDS011;9097;47.028;15.444;2023-09-19T08:35:33;1.10;;;0.70;;
17943;SDS011;9097;47.028;15.444;2023-09-19T08:38:36;1.00;;;0.70;;
17943;SDS011;9097;47.028;15.444;2023-09-19T08:41:40;1.60;;;0.55;;
17943;SDS011;9097;47.028;15.444;2023-09-19T08:44:43;1.17;;;0.88;;
17943;SDS011;9097;47.028;15.444;2023-09-19T08:47:46;1.30;;;0.80;;
17943;SDS011;9097;47.028;15.444;2023-09-19T08:50:50;2.03;;;1.10;;
17943;SDS011;9097;47.028;15.444;2023-09-19T08:53:56;0.88;;;0.82;;
17943;SDS011;9097;47.028;15.444;2023-09-19T08:57:03;1.75;;;0.77;;
17943;SDS011;9097;47.028;15.444;2023-09-19T09:00:12;2.97;;;0.90;;
17943;SDS011;9097;47.028;15.444;2023-09-19T09:03:17;1.15;;;0.85;;
17943;SDS011;9097;47.028;15.444;2023-09-19T09:06:21;3.85;;;0.73;;
17943;SDS011;9097;47.028;15.444;2023-09-19T09:09:24;0.63;;;0.50;;
17943;SDS011;9097;47.028;15.444;2023-09-19T09:12:29;1.17;;;0.73;;
17943;SDS011;9097;47.028;15.444;2023-09-19T09:15:34;0.75;;;0.55;;
17943;SDS011;9097;47.028;15.444;2023-09-19T09:18:39;0.85;;;0.80;;
17943;SDS011;9097;47.028;15.444;2023-09-19T09:21:44;1.98;;;0.80;;
17943;SDS011;9097;47.028;15.444;2023-09-19T09:24:51;2.03;;;0.98;;
17943;SDS011;9097;47.028;15.444;2023-09-19T09:28:02;2.17;;;0.55;;
17943;SDS011;9097;47.028;15.444;2023-09-19T09:31:05;2.75;;;0.98;;
17943;SDS011;9097;47.028;15.444;2023-09-19T09:34:11;1.40;;;1.02;;
17943;SDS011;9097;47.028;15.444;2023-09-19T09:37:15;1.42;;;0.93;;
17943;SDS011;9097;47.028;15.444;2023-09-19T09:40:19;0.60;;;0.60;;
17943;SDS011;9097;47.028;15.444;2023-09-19T09:43:38;1.15;;;0.73;;
17943;SDS011;9097;47.028;15.444;2023-09-19T09:46:45;1.15;;;0.60;;
17943;SDS011;9097;47.028;15.444;2023-09-19T09:50:01;1.05;;;0.50;;
17943;SDS011;9097;47.028;15.444;2023-09-19T09:53:20;0.85;;;0.70;;
17943;SDS011;9097;47.028;15.444;2023-09-19T09:56:26;0.43;;;0.30;;
17943;SDS011;9097;47.028;15.444;2023-09-19T09:59:45;0.45;;;0.45;;
17943;SDS011;9097;47.028;15.444;2023-09-19T10:02:49;0.57;;;0.52;;
17943;SDS011;9097;47.028;15.444;2023-09-19T10:05:53;0.93;;;0.57;;
17943;SDS011;9097;47.028;15.444;2023-09-19T10:08:59;1.52;;;0.80;;
17943;SDS011;9097;47.028;15.444;2023-09-19T10:12:11;1.17;;;0.60;;
17943;SDS011;9097;47.028;15.444;2023-09-19T10:15:17;0.60;;;0.40;;
17943;SDS011;9097;47.028;15.444;2023-09-19T10:18:22;0.70;;;0.50;;
17943;SDS011;9097;47.028;15.444;2023-09-19T10:21:25;2.58;;;0.50;;
17943;SDS011;9097;47.028;15.444;2023-09-19T10:24:30;0.63;;;0.40;;
17943;SDS011;9097;47.028;15.444;2023-09-19T10:27:36;0.38;;;0.30;;
17943;SDS011;9097;47.028;15.444;2023-09-19T10:30:42;0.68;;;0.47;;
17943;SDS011;9097;47.028;15.444;2023-09-19T10:33:45;1.17;;;0.35;;
17943;SDS011;9097;47.028;15.444;2023-09-19T10:36:49;0.50;;;0.45;;
17943;SDS011;9097;47.028;15.444;2023-09-19T10:39:53;1.58;;;0.20;;
17943;SDS011;9097;47.028;15.444;2023-09-19T10:43:00;0.30;;;0.30;;
17943;SDS011;9097;47.028;15.444;2023-09-19T10:46:07;0.52;;;0.35;;
17943;SDS011;9097;47.028;15.444;2023-09-19T10:49:13;0.98;;;0.60;;
17943;SDS011;9097;47.028;15.444;2023-09-19T10:52:17;0.50;;;0.32;;
17943;SDS011;9097;47.028;15.444;2023-09-19T10:55:21;1.10;;;0.35;;
17943;SDS011;9097;47.028;15.444;2023-09-19T10:58:25;0.38;;;0.32;;
17943;SDS011;9097;47.028;15.444;2023-09-19T11:01:42;0.63;;;0.35;;
17943;SDS011;9097;47.028;15.444;2023-09-19T11:04:47;0.17;;;0.17;;
17943;SDS011;9097;47.028;15.444;2023-09-19T11:07:59;1.83;;;0.40;;
17943;SDS011;9097;47.028;15.444;2023-09-19T11:11:05;0.75;;;0.25;;
17943;SDS011;9097;47.028;15.444;2023-09-19T11:14:40;0.63;;;0.40;;
17943;SDS011;9097;47.028;15.444;2023-09-19T11:17:46;0.93;;;0.28;;
17943;SDS011;9097;47.028;15.444;2023-09-19T11:20:51;0.10;;;0.10;;
17943;SDS011;9097;47.028;15.444;2023-09-19T11:24:28;0.63;;;0.20;;
17943;SDS011;9097;47.028;15.444;2023-09-19T11:27:36;3.40;;;0.30;;
17943;SDS011;9097;47.028;15.444;2023-09-19T11:34:53;0.65;;;0.50;;
17943;SDS011;9097;47.028;15.444;2023-09-19T11:38:09;1.25;;;0.30;;
17943;SDS011;9097;47.028;15.444;2023-09-19T11:45:03;0.70;;;0.50;;
17943;SDS011;9097;47.028;15.444;2023-09-19T11:48:06;0.93;;;0.35;;
17943;SDS011;9097;47.028;15.444;2023-09-19T11:51:15;0.38;;;0.22;;
17943;SDS011;9097;47.028;15.444;2023-09-19T11:54:23;0.35;;;0.32;;
17943;SDS011;9097;47.028;15.444;2023-09-19T11:57:31;1.45;;;0.40;;
17943;SDS011;9097;47.028;15.444;2023-09-19T12:00:35;0.20;;;0.20;;
17943;SDS011;9097;47.028;15.444;2023-09-19T12:03:45;0.82;;;0.40;;
17943;SDS011;9097;47.028;15.444;2023-09-19T12:06:57;0.60;;;0.28;;
17943;SDS011;9097;47.028;15.444;2023-09-19T12:10:04;0.40;;;0.30;;
17943;SDS011;9097;47.028;15.444;2023-09-19T12:13:15;0.93;;;0.50;;
17943;SDS011;9097;47.028;15.444;2023-09-19T12:16:19;0.90;;;0.50;;
17943;SDS011;9097;47.028;15.444;2023-09-19T12:19:24;0.32;;;0.22;;
17943;SDS011;9097;47.028;15.444;2023-09-19T12:22:31;0.35;;;0.28;;
17943;SDS011;9097;47.028;15.444;2023-09-19T12:25:43;0.43;;;0.25;;
17943;SDS011;9097;47.028;15.444;2023-09-19T12:28:48;1.65;;;0.30;;
17943;SDS011;9097;47.028;15.444;2023-09-19T12:31:53;0.73;;;0.45;;
17943;SDS011;9097;47.028;15.444;2023-09-19T12:34:57;0.22;;;0.10;;
17943;SDS011;9097;47.028;15.444;2023-09-19T12:38:01;0.10;;;0.10;;
17943;SDS011;9097;47.028;15.444;2023-09-19T12:41:04;0.50;;;0.30;;
17943;SDS011;9097;47.028;15.444;2023-09-19T12:44:10;0.60;;;0.25;;
17943;SDS011;9097;47.028;15.444;2023-09-19T12:47:13;0.20;;;0.20;;
17943;SDS011;9097;47.028;15.444;2023-09-19T12:50:20;0.20;;;0.20;;
17943;SDS011;9097;47.028;15.444;2023-09-19T12:53:31;0.38;;;0.22;;
17943;SDS011;9097;47.028;15.444;2023-09-19T12:56:39;0.38;;;0.38;;
17943;SDS011;9097;47.028;15.444;2023-09-19T12:59:44;0.20;;;0.20;;
17943;SDS011;9097;47.028;15.444;2023-09-19T13:06:16;0.17;;;0.17;;
17943;SDS011;9097;47.028;15.444;2023-09-19T13:09:22;1.95;;;0.20;;
17943;SDS011;9097;47.028;15.444;2023-09-19T13:12:35;0.80;;;0.30;;
17943;SDS011;9097;47.028;15.444;2023-09-19T13:15:51;0.73;;;0.38;;
17943;SDS011;9097;47.028;15.444;2023-09-19T13:18:54;0.47;;;0.40;;
17943;SDS011;9097;47.028;15.444;2023-09-19T13:21:58;0.30;;;0.20;;
17943;SDS011;9097;47.028;15.444;2023-09-19T13:25:03;0.90;;;0.57;;
17943;SDS011;9097;47.028;15.444;2023-09-19T13:28:07;0.68;;;0.20;;
17943;SDS011;9097;47.028;15.444;2023-09-19T13:31:09;0.35;;;0.25;;
17943;SDS011;9097;47.028;15.444;2023-09-19T13:34:12;0.75;;;0.40;;
17943;SDS011;9097;47.028;15.444;2023-09-19T13:37:16;0.93;;;0.38;;
17943;SDS011;9097;47.028;15.444;2023-09-19T13:40:20;2.30;;;0.88;;
17943;SDS011;9097;47.028;15.444;2023-09-19T13:43:23;0.65;;;0.30;;
17943;SDS011;9097;47.028;15.444;2023-09-19T13:46:25;0.20;;;0.15;;
17943;SDS011;9097;47.028;15.444;2023-09-19T13:49:28;0.50;;;0.30;;
17943;SDS011;9097;47.028;15.444;2023-09-19T13:52:32;0.60;;;0.60;;
17943;SDS011;9097;47.028;15.444;2023-09-19T13:55:36;0.85;;;0.40;;
17943;SDS011;9097;47.028;15.444;2023-09-19T13:58:39;0.13;;;0.13;;
17943;SDS011;9097;47.028;15.444;2023-09-19T14:01:42;0.90;;;0.52;;
17943;SDS011;9097;47.028;15.444;2023-09-19T14:04:44;0.40;;;0.20;;
17943;SDS011;9097;47.028;15.444;2023-09-19T14:07:46;0.25;;;0.22;;
17943;SDS011;9097;47.028;15.444;2023-09-19T14:10:50;0.30;;;0.20;;
17943;SDS011;9097;47.028;15.444;2023-09-19T14:13:54;0.43;;;0.40;;
17943;SDS011;9097;47.028;15.444;2023-09-19T14:16:56;0.50;;;0.30;;
17943;SDS011;9097;47.028;15.444;2023-09-19T14:20:00;0.52;;;0.22;;
17943;SDS011;9097;47.028;15.444;2023-09-19T14:23:03;0.82;;;0.50;;
17943;SDS011;9097;47.028;15.444;2023-09-19T14:26:08;0.70;;;0.70;;
17943;SDS011;9097;47.028;15.444;2023-09-19T14:29:10;1.50;;;0.63;;
17943;SDS011;9097;47.028;15.444;2023-09-19T14:32:13;0.50;;;0.40;;
17943;SDS011;9097;47.028;15.444;2023-09-19T14:35:15;0.63;;;0.30;;
17943;SDS011;9097;47.028;15.444;2023-09-19T14:38:18;0.88;;;0.43;;
17943;SDS011;9097;47.028;15.444;2023-09-19T14:41:21;0.68;;;0.30;;
17943;SDS011;9097;47.028;15.444;2023-09-19T14:44:25;0.82;;;0.45;;
17943;SDS011;9097;47.028;15.444;2023-09-19T14:47:29;1.08;;;0.17;;
17943;SDS011;9097;47.028;15.444;2023-09-19T14:50:33;0.50;;;0.30;;
17943;SDS011;9097;47.028;15.444;2023-09-19T14:53:36;0.73;;;0.52;;
17943;SDS011;9097;47.028;15.444;2023-09-19T14:56:40;0.88;;;0.55;;
17943;SDS011;9097;47.028;15.444;2023-09-19T14:59:42;1.17;;;0.55;;
17943;SDS011;9097;47.028;15.444;2023-09-19T15:02:45;0.68;;;0.20;;
17943;SDS011;9097;47.028;15.444;2023-09-19T15:05:50;0.95;;;0.50;;
17943;SDS011;9097;47.028;15.444;2023-09-19T15:08:52;0.35;;;0.32;;
17943;SDS011;9097;47.028;15.444;2023-09-19T15:11:56;0.63;;;0.20;;
17943;SDS011;9097;47.028;15.444;2023-09-19T15:14:58;0.95;;;0.25;;
17943;SDS011;9097;47.028;15.444;2023-09-19T15:18:00;0.35;;;0.35;;
17943;SDS011;9097;47.028;15.444;2023-09-19T15:21:03;0.95;;;0.45;;
17943;SDS011;9097;47.028;15.444;2023-09-19T15:24:06;5.85;;;0.52;;
17943;SDS011;9097;47.028;15.444;2023-09-19T15:27:11;1.98;;;0.50;;
17943;SDS011;9097;47.028;15.444;2023-09-19T15:30:13;1.23;;;0.65;;
17943;SDS011;9097;47.028;15.444;2023-09-19T15:33:16;0.47;;;0.38;;
17943;SDS011;9097;47.028;15.444;2023-09-19T15:36:18;1.90;;;0.38;;
17943;SDS011;9097;47.028;15.444;2023-09-19T15:39:21;0.95;;;0.95;;
17943;SDS011;9097;47.028;15.444;2023-09-19T15:42:25;0.63;;;0.45;;
17943;SDS011;9097;47.028;15.444;2023-09-19T15:45:27;0.40;;;0.40;;
17943;SDS011;9097;47.028;15.444;2023-09-19T15:48:30;1.65;;;0.55;;
17943;SDS011;9097;47.028;15.444;2023-09-19T15:51:32;0.32;;;0.20;;
17943;SDS011;9097;47.028;15.444;2023-09-19T15:54:36;0.55;;;0.35;;
17943;SDS011;9097;47.028;15.444;2023-09-19T15:57:43;0.80;;;0.30;;
17943;SDS011;9097;47.028;15.444;2023-09-19T16:00:46;0.60;;;0.47;;
17943;SDS011;9097;47.028;15.444;2023-09-19T16:03:49;1.23;;;0.90;;
17943;SDS011;9097;47.028;15.444;2023-09-19T16:06:53;0.43;;;0.40;;
17943;SDS011;9097;47.028;15.444;2023-09-19T16:09:56;0.10;;;0.10;;
17943;SDS011;9097;47.028;15.444;2023-09-19T16:13:01;2.10;;;0.30;;
17943;SDS011;9097;47.028;15.444;2023-09-19T16:16:03;0.93;;;0.40;;
17943;SDS011;9097;47.028;15.444;2023-09-19T16:19:06;1.02;;;0.52;;
17943;SDS011;9097;47.028;15.444;2023-09-19T16:22:10;0.52;;;0.40;;
17943;SDS011;9097;47.028;15.444;2023-09-19T16:25:14;0.52;;;0.52;;
17943;SDS011;9097;47.028;15.444;2023-09-19T16:28:17;0.30;;;0.30;;
17943;SDS011;9097;47.028;15.444;2023-09-19T16:31:20;0.47;;;0.40;;
17943;SDS011;9097;47.028;15.444;2023-09-19T16:34:22;0.90;;;0.80;;
17943;SDS011;9097;47.028;15.444;2023-09-19T16:37:25;0.45;;;0.40;;
17943;SDS011;9097;47.028;15.444;2023-09-19T16:40:28;0.60;;;0.40;;
17943;SDS011;9097;47.028;15.444;2023-09-19T16:43:32;1.58;;;1.13;;
17943;SDS011;9097;47.028;15.444;2023-09-19T16:46:34;0.70;;;0.45;;
17943;SDS011;9097;47.028;15.444;2023-09-19T16:49:37;1.00;;;0.60;;
17943;SDS011;9097;47.028;15.444;2023-09-19T16:52:39;1.17;;;0.45;;
17943;SDS011;9097;47.028;15.444;2023-09-19T16:55:41;0.70;;;0.40;;
17943;SDS011;9097;47.028;15.444;2023-09-19T16:58:46;0.40;;;0.40;;
17943;SDS011;9097;47.028;15.444;2023-09-19T17:01:51;2.63;;;0.40;;
17943;SDS011;9097;47.028;15.444;2023-09-19T17:04:54;0.80;;;0.40;;
17943;SDS011;9097;47.028;15.444;2023-09-19T17:07:57;0.95;;;0.75;;
17943;SDS011;9097;47.028;15.444;2023-09-19T17:11:02;0.68;;;0.43;;
17943;SDS011;9097;47.028;15.444;2023-09-19T17:14:07;0.50;;;0.50;;
17943;SDS011;9097;47.028;15.444;2023-09-19T17:17:10;0.85;;;0.73;;
17943;SDS011;9097;47.028;15.444;2023-09-19T17:20:13;1.98;;;0.50;;
17943;SDS011;9097;47.028;15.444;2023-09-19T17:23:15;0.55;;;0.25;;
17943;SDS011;9097;47.028;15.444;2023-09-19T17:26:18;1.30;;;0.70;;
17943;SDS011;9097;47.028;15.444;2023-09-19T17:29:23;0.63;;;0.50;;
17943;SDS011;9097;47.028;15.444;2023-09-19T17:32:27;1.33;;;0.60;;
17943;SDS011;9097;47.028;15.444;2023-09-19T17:35:29;0.73;;;0.30;;
17943;SDS011;9097;47.028;15.444;2023-09-19T17:38:32;0.68;;;0.28;;
17943;SDS011;9097;47.028;15.444;2023-09-19T17:41:34;0.85;;;0.55;;
17943;SDS011;9097;47.028;15.444;2023-09-19T17:44:38;0.73;;;0.68;;
17943;SDS011;9097;47.028;15.444;2023-09-19T17:47:41;0.50;;;0.40;;
17943;SDS011;9097;47.028;15.444;2023-09-19T17:50:44;2.22;;;0.40;;
17943;SDS011;9097;47.028;15.444;2023-09-19T17:53:47;0.35;;;0.30;;
17943;SDS011;9097;47.028;15.444;2023-09-19T17:56:50;1.85;;;0.60;;
17943;SDS011;9097;47.028;15.444;2023-09-19T17:59:54;1.80;;;0.63;;
17943;SDS011;9097;47.028;15.444;2023-09-19T18:02:56;1.33;;;0.60;;
17943;SDS011;9097;47.028;15.444;2023-09-19T18:05:59;0.40;;;0.40;;
17943;SDS011;9097;47.028;15.444;2023-09-19T18:09:01;1.25;;;0.70;;
17943;SDS011;9097;47.028;15.444;2023-09-19T18:12:07;0.80;;;0.30;;
17943;SDS011;9097;47.028;15.444;2023-09-19T18:15:11;0.47;;;0.40;;
17943;SDS011;9097;47.028;15.444;2023-09-19T18:18:14;0.35;;;0.30;;
17943;SDS011;9097;47.028;15.444;2023-09-19T18:21:17;0.80;;;0.50;;
17943;SDS011;9097;47.028;15.444;2023-09-19T18:24:20;0.80;;;0.77;;
17943;SDS011;9097;47.028;15.444;2023-09-19T18:27:23;1.23;;;0.93;;
17943;SDS011;9097;47.028;15.444;2023-09-19T18:30:27;2.45;;;0.50;;
17943;SDS011;9097;47.028;15.444;2023-09-19T18:33:29;1.27;;;0.68;;
17943;SDS011;9097;47.028;15.444;2023-09-19T18:36:32;1.30;;;0.65;;
17943;SDS011;9097;47.028;15.444;2023-09-19T18:39:35;1.02;;;0.80;;
17943;SDS011;9097;47.028;15.444;2023-09-19T18:42:38;1.50;;;0.52;;